createdAt,value
2019-03-06T00:00:52.283Z,6.73
2019-03-06T00:03:59.408Z,6.33
2019-03-06T00:07:04.737Z,5.90
2019-03-06T00:10:23.537Z,5.90
2019-03-06T00:13:28.805Z,5.50
2019-03-06T00:16:34.092Z,5.93
2019-03-06T00:19:39.493Z,6.23
2019-03-06T00:22:44.720Z,6.03
2019-03-06T00:25:50.037Z,5.43
2019-03-06T00:28:55.259Z,6.40
2019-03-06T00:32:00.541Z,6.57
2019-03-06T00:35:10.034Z,6.13
2019-03-06T00:38:15.473Z,6.87
2019-03-06T00:41:39.730Z,6.00
2019-03-06T00:44:46.698Z,5.80
2019-03-06T00:47:52.100Z,5.63
2019-03-06T00:50:59.650Z,6.03
2019-03-06T00:54:05.063Z,6.60
2019-03-06T00:57:10.295Z,6.33
2019-03-06T01:00:15.878Z,6.10
2019-03-06T01:03:21.419Z,5.17
2019-03-06T01:06:27.774Z,6.20
2019-03-06T01:09:33.145Z,6.77
2019-03-06T01:12:41.245Z,5.57
2019-03-06T01:15:46.687Z,6.07
2019-03-06T01:18:52.903Z,5.20
2019-03-06T01:21:59.833Z,5.77
2019-03-06T01:25:09.402Z,5.67
2019-03-06T01:28:14.763Z,6.23
2019-03-06T01:31:20.144Z,5.83
2019-03-06T01:34:44.318Z,5.60
2019-03-06T01:38:10.983Z,6.93
2019-03-06T01:41:24.079Z,5.93
2019-03-06T01:44:37.001Z,6.43
2019-03-06T01:47:42.438Z,5.63
2019-03-06T01:50:47.867Z,5.93
2019-03-06T01:53:53.154Z,5.80
2019-03-06T01:56:58.562Z,6.20
2019-03-06T02:00:03.768Z,5.80
2019-03-06T02:03:10.775Z,5.87
2019-03-06T02:06:16.059Z,5.40
2019-03-06T02:09:21.503Z,5.80
2019-03-06T02:12:26.744Z,5.87
2019-03-06T02:15:32.147Z,5.80
2019-03-06T02:18:37.378Z,5.47
2019-03-06T02:21:42.652Z,5.60
2019-03-06T02:24:47.923Z,5.73
2019-03-06T02:27:53.262Z,5.37
2019-03-06T02:30:58.678Z,5.33
2019-03-06T02:34:03.967Z,5.60
2019-03-06T02:37:09.244Z,5.40
2019-03-06T02:40:16.372Z,5.60
2019-03-06T02:43:21.661Z,6.00
2019-03-06T02:46:27.283Z,6.30
2019-03-06T02:49:32.496Z,5.50
2019-03-06T02:52:37.749Z,6.93
2019-03-06T02:55:43.072Z,5.80
2019-03-06T02:58:59.513Z,6.47
2019-03-06T03:02:36.084Z,6.03
2019-03-06T03:05:47.388Z,6.87
2019-03-06T03:08:52.833Z,7.50
2019-03-06T03:11:58.653Z,7.40
2019-03-06T03:15:04.142Z,7.27
2019-03-06T03:18:09.857Z,7.10
2019-03-06T03:21:16.268Z,7.50
2019-03-06T03:24:21.540Z,8.13
2019-03-06T03:27:26.809Z,7.63
2019-03-06T03:30:32.193Z,8.03
2019-03-06T03:33:37.539Z,7.73
2019-03-06T03:36:42.857Z,7.53
2019-03-06T03:39:48.242Z,7.40
2019-03-06T03:42:53.579Z,7.50
2019-03-06T03:45:58.811Z,7.60
2019-03-06T03:49:04.158Z,7.00
2019-03-06T03:52:10.269Z,6.70
2019-03-06T03:55:15.666Z,6.90
2019-03-06T03:58:20.994Z,7.37
2019-03-06T04:01:26.317Z,8.10
2019-03-06T04:04:31.603Z,7.27
2019-03-06T04:07:36.939Z,6.90
2019-03-06T04:10:42.272Z,6.80
2019-03-06T04:13:47.523Z,6.67
2019-03-06T04:16:52.924Z,7.60
2019-03-06T04:20:00.339Z,6.73
2019-03-06T04:23:05.332Z,7.17
2019-03-06T04:26:10.977Z,7.03
2019-03-06T04:29:16.353Z,7.00
2019-03-06T04:32:21.682Z,7.07
2019-03-06T04:35:26.941Z,6.87
2019-03-06T04:38:32.153Z,6.97
2019-03-06T04:41:37.388Z,7.33
2019-03-06T04:44:43.520Z,7.00
2019-03-06T04:47:48.821Z,6.63
2019-03-06T04:50:55.178Z,7.00
2019-03-06T04:54:00.518Z,7.00
2019-03-06T04:57:05.797Z,6.83
2019-03-06T05:00:11.878Z,7.43
2019-03-06T05:03:17.162Z,7.90
2019-03-06T05:06:22.572Z,8.03
2019-03-06T05:09:27.853Z,8.23
2019-03-06T05:12:33.297Z,8.07
2019-03-06T05:15:38.616Z,8.03
2019-03-06T05:18:49.988Z,8.60
2019-03-06T05:21:55.225Z,8.47
2019-03-06T05:25:01.608Z,8.50
2019-03-06T05:28:06.938Z,8.33
2019-03-06T05:31:12.212Z,7.70
2019-03-06T05:34:17.473Z,8.67
2019-03-06T05:38:01.887Z,9.13
2019-03-06T05:41:08.212Z,9.30
2019-03-06T05:44:13.445Z,9.40
2019-03-06T05:47:18.685Z,8.83
2019-03-06T05:50:23.950Z,9.40
2019-03-06T05:53:29.211Z,9.97
2019-03-06T05:56:34.608Z,9.60
2019-03-06T05:59:39.852Z,9.63
2019-03-06T06:02:45.108Z,10.03
2019-03-06T06:05:50.437Z,10.87
2019-03-06T06:08:56.061Z,10.17
2019-03-06T06:12:01.448Z,11.00
2019-03-06T06:15:09.736Z,11.23
2019-03-06T06:18:15.121Z,11.30
2019-03-06T06:21:42.603Z,11.77
2019-03-06T06:24:47.964Z,11.97
2019-03-06T06:27:53.325Z,12.17
2019-03-06T06:30:58.763Z,12.37
2019-03-06T06:34:04.023Z,12.73
2019-03-06T06:37:09.486Z,13.47
2019-03-06T06:40:15.197Z,14.47
2019-03-06T06:43:20.502Z,13.67
2019-03-06T06:46:25.830Z,14.00
2019-03-06T06:49:31.306Z,15.77
2019-03-06T06:53:16.875Z,14.83
2019-03-06T06:56:54.693Z,15.03
2019-03-06T07:00:21.316Z,15.63
2019-03-06T07:04:20.560Z,15.80
2019-03-06T07:08:02.977Z,15.70
2019-03-06T07:11:30.008Z,15.97
2019-03-06T07:14:41.672Z,15.57
2019-03-06T07:17:59.952Z,15.13
2019-03-06T07:21:10.920Z,16.70
2019-03-06T07:24:33.646Z,17.43
2019-03-06T07:27:50.756Z,15.33
2019-03-06T07:31:23.760Z,17.57
2019-03-06T07:34:52.065Z,16.17
2019-03-06T07:38:03.051Z,16.20
2019-03-06T07:41:27.246Z,16.43
2019-03-06T07:45:00.751Z,17.07
2019-03-06T07:48:14.851Z,17.80
2019-03-06T07:51:42.361Z,16.67
2019-03-06T07:55:03.157Z,17.00
2019-03-06T07:58:45.455Z,16.77
2019-03-06T08:02:02.972Z,17.80
2019-03-06T08:05:09.123Z,16.50
2019-03-06T08:08:16.644Z,16.33
2019-03-06T08:11:39.761Z,16.50
2019-03-06T08:15:10.111Z,16.47
2019-03-06T08:18:34.272Z,17.30
2019-03-06T08:21:49.304Z,16.23
2019-03-06T08:25:02.060Z,16.63
2019-03-06T08:28:08.501Z,15.87
2019-03-06T08:31:38.009Z,16.07
2019-03-06T08:34:44.275Z,16.00
2019-03-06T08:37:49.676Z,15.23
2019-03-06T08:41:03.896Z,16.97
2019-03-06T08:44:01.972Z,14.60
2019-03-06T08:47:32.205Z,15.10
2019-03-06T08:50:49.871Z,15.40
2019-03-06T08:54:03.254Z,14.63
2019-03-06T08:57:19.445Z,14.50
2019-03-06T09:01:02.297Z,14.00
2019-03-06T09:04:45.178Z,14.10
2019-03-06T09:08:08.231Z,14.87
2019-03-06T09:11:30.320Z,14.33
2019-03-06T09:15:06.959Z,14.50
2019-03-06T09:18:29.763Z,13.97
2019-03-06T09:21:57.001Z,12.60
2019-03-06T09:25:11.395Z,12.87
2019-03-06T09:28:22.724Z,12.03
2019-03-06T09:31:53.989Z,12.67
2019-03-06T09:35:21.255Z,12.43
2019-03-06T09:38:45.309Z,12.17
2019-03-06T09:42:02.942Z,12.20
2019-03-06T09:45:16.800Z,10.93
2019-03-06T09:48:41.194Z,11.40
2019-03-06T09:52:08.676Z,10.77
2019-03-06T09:55:43.522Z,11.27
2019-03-06T09:59:12.050Z,10.80
2019-03-06T10:02:33.585Z,9.93
2019-03-06T10:05:53.003Z,9.90
2019-03-06T10:09:06.032Z,10.23
2019-03-06T10:12:25.826Z,9.57
2019-03-06T10:15:49.069Z,9.03
2019-03-06T10:19:13.572Z,9.83
2019-03-06T10:22:18.922Z,9.00
2019-03-06T10:25:30.113Z,9.27
2019-03-06T10:28:31.490Z,7.90
2019-03-06T10:31:38.596Z,8.40
2019-03-06T10:34:43.678Z,7.73
2019-03-06T10:37:48.986Z,8.40
2019-03-06T10:40:54.345Z,7.60
2019-03-06T10:44:03.069Z,7.40
2019-03-06T10:47:08.451Z,7.30
2019-03-06T10:50:16.110Z,8.20
2019-03-06T10:53:21.610Z,6.90
2019-03-06T10:56:27.087Z,7.40
2019-03-06T10:59:32.412Z,6.40
2019-03-06T11:02:37.736Z,7.00
2019-03-06T11:05:43.092Z,6.27
2019-03-06T11:08:48.855Z,6.27
2019-03-06T11:11:54.869Z,6.43
2019-03-06T11:15:01.131Z,5.77
2019-03-06T11:18:06.520Z,6.70
2019-03-06T11:21:11.952Z,5.83
2019-03-06T11:24:17.277Z,5.90
2019-03-06T11:27:22.632Z,5.40
2019-03-06T11:30:43.844Z,4.87
2019-03-06T11:33:49.212Z,5.30
2019-03-06T11:36:54.694Z,4.70
2019-03-06T11:40:00.328Z,4.90
2019-03-06T11:43:06.733Z,4.70
2019-03-06T11:46:15.864Z,5.00
2019-03-06T11:49:20.817Z,4.60
2019-03-06T11:52:26.141Z,4.80
2019-03-06T11:55:31.765Z,4.40
2019-03-06T11:58:37.159Z,4.30
2019-03-06T12:01:47.833Z,4.93
2019-03-06T12:04:50.751Z,5.30
2019-03-06T12:07:56.064Z,4.77
2019-03-06T12:11:01.489Z,4.80
2019-03-06T12:14:07.140Z,4.70
2019-03-06T12:17:13.179Z,4.93
2019-03-06T12:20:18.511Z,4.43
2019-03-06T12:23:24.150Z,4.50
2019-03-06T12:26:29.798Z,4.77
2019-03-06T12:29:35.109Z,4.20
2019-03-06T12:32:40.510Z,4.30
2019-03-06T12:35:45.754Z,4.37
2019-03-06T12:38:51.244Z,4.10
2019-03-06T12:41:56.545Z,4.80
2019-03-06T12:45:01.786Z,4.70
2019-03-06T12:48:08.759Z,4.80
2019-03-06T12:51:14.134Z,4.40
2019-03-06T12:54:19.754Z,4.93
2019-03-06T12:57:25.939Z,4.20
2019-03-06T13:00:31.225Z,4.60
2019-03-06T13:03:36.516Z,4.20
2019-03-06T13:06:41.777Z,4.23
2019-03-06T13:09:47.124Z,4.03
2019-03-06T13:12:52.484Z,4.00
2019-03-06T13:15:57.774Z,4.00
2019-03-06T13:19:03.275Z,3.67
2019-03-06T13:22:12.199Z,4.00
2019-03-06T13:25:20.514Z,4.10
2019-03-06T13:28:25.773Z,3.60
2019-03-06T13:31:31.028Z,3.60
2019-03-06T13:34:50.917Z,3.43
2019-03-06T13:37:56.218Z,3.70
2019-03-06T13:41:02.543Z,4.00
2019-03-06T13:44:07.869Z,3.17
2019-03-06T13:47:13.195Z,3.60
2019-03-06T13:50:18.604Z,3.33
2019-03-06T13:53:23.928Z,3.23
2019-03-06T13:56:42.534Z,3.90
2019-03-06T13:59:47.939Z,3.37
2019-03-06T14:02:58.334Z,3.73
2019-03-06T14:06:04.027Z,3.50
2019-03-06T14:09:11.696Z,3.90
2019-03-06T14:12:17.019Z,3.53
2019-03-06T14:15:24.366Z,3.50
2019-03-06T14:18:29.714Z,3.20
2019-03-06T14:21:35.034Z,2.80
2019-03-06T14:24:40.290Z,3.00
2019-03-06T14:27:47.207Z,3.03
2019-03-06T14:30:52.809Z,2.70
2019-03-06T14:33:58.156Z,3.17
2019-03-06T14:37:03.823Z,3.30
2019-03-06T14:40:14.394Z,2.90
2019-03-06T14:43:20.832Z,2.90
2019-03-06T14:46:26.203Z,2.90
2019-03-06T14:49:31.490Z,2.87
2019-03-06T14:52:36.869Z,3.90
2019-03-06T14:55:42.278Z,2.80
2019-03-06T14:58:47.616Z,3.10
2019-03-06T15:01:52.951Z,3.20
2019-03-06T15:04:58.299Z,2.93
2019-03-06T15:08:05.583Z,3.80
2019-03-06T15:11:12.878Z,2.80
2019-03-06T15:14:18.127Z,2.80
2019-03-06T15:17:25.672Z,2.30
2019-03-06T15:20:31.103Z,2.43
2019-03-06T15:23:36.607Z,2.87
2019-03-06T15:26:42.156Z,2.60
2019-03-06T15:29:47.497Z,2.67
2019-03-06T15:32:52.943Z,2.90
2019-03-06T15:35:58.628Z,2.77
2019-03-06T15:39:04.922Z,3.27
2019-03-06T15:42:13.491Z,3.30
2019-03-06T15:45:21.640Z,3.20
2019-03-06T15:48:27.015Z,3.00
2019-03-06T15:51:34.598Z,3.27
2019-03-06T15:54:40.034Z,3.40
2019-03-06T15:57:45.382Z,3.53
2019-03-06T16:00:51.000Z,3.77
2019-03-06T16:03:56.476Z,3.70
2019-03-06T16:07:01.866Z,3.70
2019-03-06T16:10:07.581Z,3.43
2019-03-06T16:13:13.016Z,3.77
2019-03-06T16:16:19.333Z,3.80
2019-03-06T16:19:24.969Z,3.37
2019-03-06T16:22:30.296Z,4.00
2019-03-06T16:25:37.943Z,3.40
2019-03-06T16:28:42.750Z,3.60
2019-03-06T16:31:48.190Z,3.50
2019-03-06T16:34:55.156Z,3.70
2019-03-06T16:38:02.556Z,3.47
2019-03-06T16:41:08.390Z,3.37
2019-03-06T16:44:13.743Z,2.90
2019-03-06T16:47:19.080Z,3.47
2019-03-06T16:50:26.217Z,3.00
2019-03-06T16:53:31.644Z,2.73
2019-03-06T16:56:37.064Z,3.10
2019-03-06T16:59:42.461Z,3.33
2019-03-06T17:02:48.209Z,3.00
2019-03-06T17:05:54.689Z,2.90
2019-03-06T17:09:00.048Z,3.00
2019-03-06T17:12:05.608Z,2.90
2019-03-06T17:15:11.914Z,3.10
2019-03-06T17:18:17.264Z,2.83
2019-03-06T17:21:22.599Z,2.57
2019-03-06T17:24:28.070Z,3.00
2019-03-06T17:27:33.431Z,2.57
2019-03-06T17:30:42.344Z,2.90
2019-03-06T17:33:47.778Z,2.93
2019-03-06T17:36:53.273Z,2.97
2019-03-06T17:39:58.615Z,2.70
2019-03-06T17:43:04.663Z,2.43
2019-03-06T17:46:10.308Z,2.60
2019-03-06T17:49:15.652Z,2.77
2019-03-06T17:52:21.010Z,2.97
2019-03-06T17:55:26.590Z,2.40
2019-03-06T17:58:31.991Z,2.93
2019-03-06T18:01:37.490Z,2.80
2019-03-06T18:04:43.007Z,2.80
2019-03-06T18:07:48.337Z,3.10
2019-03-06T18:10:54.702Z,2.70
2019-03-06T18:14:00.063Z,2.67
2019-03-06T18:17:09.488Z,3.13
2019-03-06T18:20:15.553Z,3.00
2019-03-06T18:23:20.827Z,3.13
2019-03-06T18:26:26.483Z,2.60
2019-03-06T18:29:31.879Z,2.93
2019-03-06T18:32:37.354Z,2.63
2019-03-06T18:35:42.815Z,2.90
2019-03-06T18:38:48.228Z,2.90
2019-03-06T18:41:53.619Z,2.97
2019-03-06T18:44:59.015Z,2.60
2019-03-06T18:48:04.757Z,3.00
2019-03-06T18:51:10.016Z,3.50
2019-03-06T18:54:15.526Z,3.00
2019-03-06T18:57:20.912Z,2.97
2019-03-06T19:00:28.015Z,2.50
2019-03-06T19:03:35.811Z,2.83
2019-03-06T19:06:42.255Z,2.63
2019-03-06T19:09:47.983Z,2.80
2019-03-06T19:12:54.409Z,2.60
2019-03-06T19:15:59.817Z,2.60
2019-03-06T19:19:05.500Z,2.70
2019-03-06T19:22:11.009Z,2.63
2019-03-06T19:25:17.813Z,3.67
2019-03-06T19:28:23.614Z,2.60
2019-03-06T19:31:28.849Z,3.10
2019-03-06T19:34:34.284Z,3.00
2019-03-06T19:37:39.671Z,2.83
2019-03-06T19:40:45.059Z,2.83
2019-03-06T19:43:50.467Z,3.20
2019-03-06T19:46:55.948Z,2.80
2019-03-06T19:50:01.409Z,2.83
2019-03-06T19:53:06.749Z,3.10
2019-03-06T19:56:13.641Z,2.90
2019-03-06T19:59:18.994Z,3.00
2019-03-06T20:02:24.396Z,3.10
2019-03-06T20:05:35.245Z,2.60
2019-03-06T20:08:41.398Z,2.73
2019-03-06T20:11:46.821Z,2.80
2019-03-06T20:14:52.288Z,3.20
2019-03-06T20:17:57.698Z,3.13
2019-03-06T20:21:03.117Z,2.90
2019-03-06T20:24:09.852Z,2.80
2019-03-06T20:27:15.339Z,2.90
2019-03-06T20:30:21.633Z,2.80
2019-03-06T20:33:27.018Z,2.60
2019-03-06T20:36:32.353Z,2.60
2019-03-06T20:39:37.709Z,2.73
2019-03-06T20:42:43.090Z,2.80
2019-03-06T20:45:48.571Z,3.10
2019-03-06T20:48:54.137Z,3.23
2019-03-06T20:52:00.515Z,3.03
2019-03-06T20:55:06.381Z,2.87
2019-03-06T20:58:11.764Z,3.40
2019-03-06T21:01:17.115Z,2.83
2019-03-06T21:04:22.455Z,3.00
2019-03-06T21:07:27.768Z,2.80
2019-03-06T21:10:33.118Z,3.50
2019-03-06T21:13:38.489Z,2.80
2019-03-06T21:16:43.811Z,2.37
2019-03-06T21:19:49.178Z,3.00
2019-03-06T21:22:56.737Z,2.80
2019-03-06T21:26:02.158Z,2.83
2019-03-06T21:29:10.306Z,3.00
2019-03-06T21:32:15.706Z,2.53
2019-03-06T21:35:22.206Z,3.20
2019-03-06T21:38:27.544Z,3.00
2019-03-06T21:41:32.898Z,2.90
2019-03-06T21:44:38.247Z,2.80
2019-03-06T21:47:43.661Z,3.00
2019-03-06T21:50:49.153Z,3.00
2019-03-06T21:53:54.526Z,3.30
2019-03-06T21:56:59.883Z,2.90
2019-03-06T22:00:05.887Z,2.97
2019-03-06T22:03:11.677Z,3.20
2019-03-06T22:06:17.819Z,2.60
2019-03-06T22:09:23.387Z,3.70
2019-03-06T22:12:28.726Z,3.50
2019-03-06T22:15:34.398Z,3.03
2019-03-06T22:18:39.747Z,3.03
2019-03-06T22:21:46.317Z,3.60
2019-03-06T22:24:51.641Z,3.17
2019-03-06T22:27:57.088Z,3.50
2019-03-06T22:31:02.403Z,5.43
2019-03-06T22:34:07.752Z,3.20
2019-03-06T22:37:13.207Z,3.47
2019-03-06T22:40:18.593Z,3.60
2019-03-06T22:43:23.966Z,3.53
2019-03-06T22:46:29.290Z,3.50
2019-03-06T22:49:34.606Z,3.53
2019-03-06T22:52:39.915Z,3.10
2019-03-06T22:55:45.605Z,3.57
2019-03-06T22:58:50.966Z,3.87
2019-03-06T23:01:56.576Z,3.70
2019-03-06T23:05:01.895Z,3.97
2019-03-06T23:08:07.326Z,3.47
2019-03-06T23:11:12.594Z,4.40
2019-03-06T23:14:19.940Z,4.20
2019-03-06T23:17:24.963Z,3.70
2019-03-06T23:20:32.672Z,4.10
2019-03-06T23:23:37.905Z,3.80
2019-03-06T23:26:43.391Z,4.20
2019-03-06T23:29:49.090Z,3.70
2019-03-06T23:32:55.445Z,4.47
2019-03-06T23:36:00.758Z,3.87
2019-03-06T23:39:08.422Z,3.97
2019-03-06T23:42:14.202Z,4.00
2019-03-06T23:45:19.556Z,3.70
2019-03-06T23:48:24.892Z,4.63
2019-03-06T23:51:49.066Z,5.00
2019-03-06T23:54:54.379Z,4.17
2019-03-06T23:57:59.694Z,4.00
